x

Buoy F01 - West Penobscot Bay (44033) Wave Buoy

1:04pm - Wed 22nd Nov 2017 All times are EST. -5 hours from GMT.

  • Sig Wave height 2.3ft
  • Peak Period 6s
  • Wind
    7mph, 7mph gusts
  • Sea Temp 50°f
  • Air Temp 51°f
  • Sea Pressure 1010.1mb
  • Buoy F01 - West Penobscot Bay
  • Buoy F01 - West Penobscot Bay

More Historic Weather Station data

Upgrade to MSW Pro to gain access to the past 30 days of data for over 8000 Wavebouys and Weather Stations around the globe.

Join

Comparision Forecast

View Surf forecast
   
Wed 11/22 1:04pm 2.5ft 6s 7 7 mph 1010.1mb 50f 51f
12:04pm 2.5ft 6s 11 16 mph 1011mb 50f 51f
11:04am 3.5ft 6s 13 16 mph 1012.1mb 50f 52f
10:04am 3ft 6s 11 13 mph 1013.3mb 50f 52f
9:04am 2.5ft 6s 7 9 mph 1014.1mb 50f 51f
8:04am 3ft 6s 9 9 mph 1014.3mb 50f 51f
7:04am 3ft 6s 9 13 mph 1014.7mb 50f 51f
6:04am 3.5ft 8s 9 11 mph 1014.9mb 50f 51f
5:04am 3.5ft 6s 13 16 mph 1014.9mb 50f 51f
3:04am 4ft 8s 16 20 mph 1014.4mb 50f 51f
Tue 11/21 11:04pm 4.5ft 6s 20 29 mph 1014.4mb 50f 52f
10:04pm 4.5ft 6s 22 27 mph 1014.5mb 50f 52f
9:04pm 5ft 6s 25 29 mph 1014.4mb 50f 52f
8:04pm 5.5ft 8s 25 31 mph 1013.9mb 50f 53f
7:04pm 5ft 8s 25 31 mph 1014mb 50f 53f
6:04pm 5.5ft 6s 27 34 mph 1013.6mb 50f 53f
4:04pm 5.5ft 8s 25 31 mph 1013.5mb 50f 52f
3:04pm 5ft 6s 20 25 mph 1014mb 50f 52f
2:04pm 4.5ft 6s 22 25 mph 1014mb 50f 51f
1:04pm 3.5ft 5s 22 29 mph 1014.7mb 50f 50f
12:04pm 4ft 5s 25 29 mph 1015mb 50f 48f
11:04am 2.5ft 6s 20 27 mph 1016.1mb 50f 48f
Mon 11/20 4:04pm 1.3ft 2s 18 22 mph 1009.7mb 50f 35f
3:04pm 2.5ft 6s 20 25 mph 1008.7mb 50f 35f
2:04pm 3ft 3s 22 29 mph 1007.9mb 50f 35f
1:04pm 2.5ft 3s 22 29 mph 1007mb 50f 35f
12:04pm 1.6ft 3s 20 27 mph 1006.4mb 50f 37f
11:04am 2ft 3s 20 27 mph 1006.1mb 50f 36f
10:04am 2ft 3s 22 27 mph 1006.3mb 50f 36f
9:04am 1.3ft 2s 20 25 mph 1006.2mb 50f 35f
8:04am 1.6ft 6s 20 27 mph 1006.1mb 50f 34f
7:04am 1.3ft 2s 16 20 mph 1005.3mb 50f 33f
6:04am 1.6ft 3s 20 27 mph 1003.8mb 50f 35f
5:04am 1.6ft 5s 20 27 mph 1002.6mb 50f 35f
3:04am 2.5ft 8s 16 18 mph 1000.9mb 50f 35f
2:04am 2.5ft 11s 16 18 mph 1000.4mb 50f 35f
1:04am 1.3ft 5s 13 18 mph 999.7mb 50f 35f
12:04am 1.3ft 3s 18 25 mph 998.7mb 50f 36f
Sun 11/19 11:04pm 1.3ft 3s 16 22 mph 998.7mb 50f 36f
10:04pm 2ft 3s 22 27 mph 997.9mb 50f 37f
9:04pm 3.5ft 8s 22 27 mph 996.8mb 50f 37f
8:04pm 4ft 8s 25 34 mph 994.9mb 50f 38f
7:04pm 4ft 8s 25 29 mph 993.3mb 51f 39f
6:04pm 4.5ft 8s 29 38 mph 991.2mb 51f 41f
5:04pm  -   -  27 36 mph 988.9mb 51f 44f
4:04pm 5ft 8s 25 31 mph 986.1mb 50f 46f
3:04pm 5ft 8s 18 22 mph 982.7mb 50f 53f
2:04pm 5ft 8s 18 22 mph 982mb 50f 53f
1:04pm 5.5ft 8s 25 29 mph 982.2mb 50f 54f
12:04pm 6.5ft 8s 22 29 mph 983mb 50f 54f
11:04am 6ft 6s 27 31 mph 984.5mb 50f 55f
10:04am 5ft 6s 27 34 mph 985.9mb 50f 54f
9:04am 5ft 6s 25 29 mph 986.7mb 50f 54f
8:04am 6ft 6s 25 31 mph 988mb 50f 55f
7:04am 4.5ft 6s 22 25 mph 989.2mb 50f 54f
6:04am 4.5ft 6s 25 29 mph 990.2mb 50f 54f
5:04am 4ft 6s 20 22 mph 991.9mb 50f 53f
4:04am 3.5ft 6s 16 20 mph 993.5mb 50f 52f
3:04am 3.5ft 6s 20 25 mph 995.1mb 50f 52f
2:04am 3.5ft 5s 13 16 mph 996.2mb 50f 51f
1:04am 4ft 5s 16 18 mph 997.9mb 50f 50f
12:04am 4.5ft 5s 22 27 mph 999mb 50f 52f
Sat 11/18 11:04pm 3.5ft 5s 25 29 mph 1000.3mb 50f 51f
10:04pm 3ft 5s 22 29 mph 1001.8mb 50f 50f
9:04pm 2.5ft 4s 18 22 mph 1003.7mb 50f 49f